Terminal Aerodrome Forecast
Issued by NWS Sterling, VA

Current Version | Previous Version | Text Only | Print | Product List | Glossary Off
Versions: 1 2 3 4 5 6 7 8 9 10 11 12 13 14 15 16 17 18 19 20 21

000
FTUS41 KLWX 252101 AAA
TAFDCA
TAF AMD
KDCA 252101Z 2521/2618 21008KT P6SM -RA OVC070
     FM260000 21006KT 6SM -RA OVC050
     FM260200 VRB04KT 6SM -RA OVC015
     FM260600 VRB04KT P6SM OVC015
     FM260900 01005KT P6SM OVC025
     FM261200 01004KT P6SM OVC050=

USA.gov is the U.S. government's official web portal to all federal, state and local government web resources and services.